sensor_id;sensor_type;location;lat;lon;timestamp;pressure;altitude;pressure_sealevel;temperature;humidity
10946;BME280;5525;42.648;23.368;2022-08-21T00:00:27;94181.22;;;17.87;100.00
10946;BME280;5525;42.648;23.368;2022-08-21T00:02:56;94176.16;;;17.89;100.00
10946;BME280;5525;42.648;23.368;2022-08-21T00:05:25;94171.84;;;17.88;100.00
10946;BME280;5525;42.648;23.368;2022-08-21T00:07:55;94130.69;;;17.57;100.00
10946;BME280;5525;42.648;23.368;2022-08-21T00:10:24;94153.09;;;17.87;100.00
10946;BME280;5525;42.648;23.368;2022-08-21T00:12:51;94116.81;;;17.83;100.00
10946;BME280;5525;42.648;23.368;2022-08-21T00:15:22;94124.25;;;17.93;100.00
10946;BME280;5525;42.648;23.368;2022-08-21T00:17:51;94131.63;;;17.82;100.00
10946;BME280;5525;42.648;23.368;2022-08-21T00:20:19;94160.63;;;18.07;100.00
10946;BME280;5525;42.648;23.368;2022-08-21T00:22:48;94123.81;;;17.77;100.00
10946;BME280;5525;42.648;23.368;2022-08-21T00:25:20;94105.41;;;17.70;100.00
10946;BME280;5525;42.648;23.368;2022-08-21T00:27:48;94109.38;;;17.80;100.00
10946;BME280;5525;42.648;23.368;2022-08-21T00:30:16;94156.03;;;18.25;100.00
10946;BME280;5525;42.648;23.368;2022-08-21T00:32:44;94136.88;;;18.18;100.00
10946;BME280;5525;42.648;23.368;2022-08-21T00:35:14;94110.22;;;17.94;100.00
10946;BME280;5525;42.648;23.368;2022-08-21T00:37:41;94130.28;;;18.23;100.00
10946;BME280;5525;42.648;23.368;2022-08-21T00:40:13;94148.66;;;18.33;100.00
10946;BME280;5525;42.648;23.368;2022-08-21T00:42:42;94146.38;;;18.38;100.00
10946;BME280;5525;42.648;23.368;2022-08-21T00:45:10;94115.44;;;18.24;100.00
10946;BME280;5525;42.648;23.368;2022-08-21T00:47:38;94151.38;;;18.26;100.00
10946;BME280;5525;42.648;23.368;2022-08-21T00:50:08;94149.03;;;18.31;100.00
10946;BME280;5525;42.648;23.368;2022-08-21T00:52:36;94119.69;;;18.11;100.00
10946;BME280;5525;42.648;23.368;2022-08-21T00:55:05;94166.25;;;18.35;100.00
10946;BME280;5525;42.648;23.368;2022-08-21T00:57:36;94112.69;;;18.17;100.00
10946;BME280;5525;42.648;23.368;2022-08-21T01:00:10;94146.72;;;18.37;100.00
10946;BME280;5525;42.648;23.368;2022-08-21T01:02:37;94147.88;;;18.36;100.00
10946;BME280;5525;42.648;23.368;2022-08-21T01:05:05;94145.53;;;18.34;100.00
10946;BME280;5525;42.648;23.368;2022-08-21T01:07:32;94135.38;;;18.35;100.00
10946;BME280;5525;42.648;23.368;2022-08-21T01:10:00;94131.06;;;18.30;100.00
10946;BME280;5525;42.648;23.368;2022-08-21T01:12:28;94097.41;;;18.09;100.00
10946;BME280;5525;42.648;23.368;2022-08-21T01:14:55;94128.78;;;18.39;100.00
10946;BME280;5525;42.648;23.368;2022-08-21T01:17:26;94060.28;;;17.94;100.00
10946;BME280;5525;42.648;23.368;2022-08-21T01:19:56;94081.44;;;18.11;100.00
10946;BME280;5525;42.648;23.368;2022-08-21T01:22:25;94118.25;;;18.38;100.00
10946;BME280;5525;42.648;23.368;2022-08-21T01:24:53;94126.47;;;18.48;100.00
10946;BME280;5525;42.648;23.368;2022-08-21T01:27:20;94063.50;;;18.17;100.00
10946;BME280;5525;42.648;23.368;2022-08-21T01:29:58;94085.00;;;18.36;100.00
10946;BME280;5525;42.648;23.368;2022-08-21T01:32:28;94127.31;;;18.63;100.00
10946;BME280;5525;42.648;23.368;2022-08-21T01:34:56;94097.59;;;18.55;100.00
10946;BME280;5525;42.648;23.368;2022-08-21T01:37:24;94041.22;;;18.08;100.00
10946;BME280;5525;42.648;23.368;2022-08-21T01:39:51;94137.84;;;18.61;100.00
10946;BME280;5525;42.648;23.368;2022-08-21T01:42:18;94135.50;;;18.60;100.00
10946;BME280;5525;42.648;23.368;2022-08-21T01:44:45;94090.94;;;18.41;100.00
10946;BME280;5525;42.648;23.368;2022-08-21T01:47:14;94128.44;;;18.52;100.00
10946;BME280;5525;42.648;23.368;2022-08-21T01:49:42;94121.81;;;18.53;100.00
10946;BME280;5525;42.648;23.368;2022-08-21T01:52:10;94125.72;;;18.55;100.00
10946;BME280;5525;42.648;23.368;2022-08-21T01:54:39;94131.97;;;18.52;100.00
10946;BME280;5525;42.648;23.368;2022-08-21T01:57:07;94118.28;;;18.48;100.00
10946;BME280;5525;42.648;23.368;2022-08-21T01:59:34;94078.31;;;18.12;100.00
10946;BME280;5525;42.648;23.368;2022-08-21T02:02:02;94125.63;;;18.34;100.00
10946;BME280;5525;42.648;23.368;2022-08-21T02:04:30;94093.50;;;18.10;100.00
10946;BME280;5525;42.648;23.368;2022-08-21T02:06:59;94100.94;;;18.13;100.00
10946;BME280;5525;42.648;23.368;2022-08-21T02:09:26;94134.94;;;18.22;100.00
10946;BME280;5525;42.648;23.368;2022-08-21T02:11:56;94127.91;;;18.18;100.00
10946;BME280;5525;42.648;23.368;2022-08-21T02:14:24;94134.97;;;18.26;100.00
10946;BME280;5525;42.648;23.368;2022-08-21T02:16:51;94124.75;;;18.16;100.00
10946;BME280;5525;42.648;23.368;2022-08-21T02:19:18;94142.31;;;18.15;100.00
10946;BME280;5525;42.648;23.368;2022-08-21T02:21:45;94107.94;;;18.07;100.00
10946;BME280;5525;42.648;23.368;2022-08-21T02:24:12;94146.69;;;18.30;100.00
10946;BME280;5525;42.648;23.368;2022-08-21T02:26:39;94125.94;;;18.15;100.00
10946;BME280;5525;42.648;23.368;2022-08-21T02:29:08;94112.66;;;18.20;100.00
10946;BME280;5525;42.648;23.368;2022-08-21T02:31:35;94159.25;;;18.38;100.00
10946;BME280;5525;42.648;23.368;2022-08-21T02:34:02;94114.56;;;18.02;100.00
10946;BME280;5525;42.648;23.368;2022-08-21T02:36:29;94131.81;;;18.17;100.00
10946;BME280;5525;42.648;23.368;2022-08-21T02:38:57;94148.66;;;18.33;100.00
10946;BME280;5525;42.648;23.368;2022-08-21T02:41:24;94133.81;;;18.30;100.00
10946;BME280;5525;42.648;23.368;2022-08-21T02:43:51;94153.34;;;18.36;100.00
10946;BME280;5525;42.648;23.368;2022-08-21T02:46:20;94150.66;;;18.39;100.00
10946;BME280;5525;42.648;23.368;2022-08-21T02:48:48;94080.25;;;18.05;100.00
10946;BME280;5525;42.648;23.368;2022-08-21T02:51:17;94143.69;;;18.56;100.00
10946;BME280;5525;42.648;23.368;2022-08-21T02:53:46;94156.22;;;18.68;100.00
10946;BME280;5525;42.648;23.368;2022-08-21T02:56:17;94094.75;;;18.26;100.00
10946;BME280;5525;42.648;23.368;2022-08-21T02:58:47;94117.06;;;18.39;100.00
10946;BME280;5525;42.648;23.368;2022-08-21T03:01:17;94153.06;;;18.62;100.00
10946;BME280;5525;42.648;23.368;2022-08-21T03:03:47;94150.31;;;18.48;100.00
10946;BME280;5525;42.648;23.368;2022-08-21T03:06:18;94155.00;;;18.48;100.00
10946;BME280;5525;42.648;23.368;2022-08-21T03:08:46;94163.22;;;18.65;100.00
10946;BME280;5525;42.648;23.368;2022-08-21T03:11:14;94153.88;;;18.66;100.00
10946;BME280;5525;42.648;23.368;2022-08-21T03:13:42;94133.50;;;18.53;100.00
10946;BME280;5525;42.648;23.368;2022-08-21T03:16:09;94132.25;;;18.33;100.00
10946;BME280;5525;42.648;23.368;2022-08-21T03:18:36;94144.41;;;18.42;100.00
10946;BME280;5525;42.648;23.368;2022-08-21T03:21:12;94077.81;;;17.89;100.00
10946;BME280;5525;42.648;23.368;2022-08-21T03:23:40;94143.19;;;18.36;100.00
10946;BME280;5525;42.648;23.368;2022-08-21T03:26:07;94132.25;;;18.33;100.00
10946;BME280;5525;42.648;23.368;2022-08-21T03:28:36;94150.28;;;18.44;100.00
10946;BME280;5525;42.648;23.368;2022-08-21T03:31:04;94117.41;;;18.23;100.00
10946;BME280;5525;42.648;23.368;2022-08-21T03:33:31;94138.16;;;18.42;100.00
10946;BME280;5525;42.648;23.368;2022-08-21T03:36:01;94096.66;;;18.12;100.00
10946;BME280;5525;42.648;23.368;2022-08-21T03:38:32;94104.47;;;18.20;100.00
10946;BME280;5525;42.648;23.368;2022-08-21T03:41:00;94144.75;;;18.30;100.00
10946;BME280;5525;42.648;23.368;2022-08-21T03:43:28;94131.00;;;18.16;100.00
10946;BME280;5525;42.648;23.368;2022-08-21T03:45:55;94119.28;;;18.09;100.00
10946;BME280;5525;42.648;23.368;2022-08-21T03:48:22;94139.22;;;18.16;100.00
10946;BME280;5525;42.648;23.368;2022-08-21T03:50:52;94107.91;;;17.96;100.00
10946;BME280;5525;42.648;23.368;2022-08-21T03:53:19;94146.59;;;18.09;100.00
10946;BME280;5525;42.648;23.368;2022-08-21T03:55:50;94117.56;;;17.80;100.00
10946;BME280;5525;42.648;23.368;2022-08-21T03:58:24;94130.84;;;17.81;100.00
10946;BME280;5525;42.648;23.368;2022-08-21T04:00:55;94105.38;;;17.60;100.00
10946;BME280;5525;42.648;23.368;2022-08-21T04:03:23;94158.66;;;18.01;100.00
10946;BME280;5525;42.648;23.368;2022-08-21T04:05:50;94172.69;;;17.99;100.00
10946;BME280;5525;42.648;23.368;2022-08-21T04:08:17;94141.72;;;17.71;100.00
10946;BME280;5525;42.648;23.368;2022-08-21T04:10:46;94124.47;;;17.60;100.00
10946;BME280;5525;42.648;23.368;2022-08-21T04:13:15;94172.22;;;17.83;100.00
10946;BME280;5525;42.648;23.368;2022-08-21T04:15:43;94147.13;;;17.67;100.00
10946;BME280;5525;42.648;23.368;2022-08-21T04:18:11;94125.22;;;17.57;100.00
10946;BME280;5525;42.648;23.368;2022-08-21T04:20:39;94161.75;;;17.92;100.00
10946;BME280;5525;42.648;23.368;2022-08-21T04:23:06;94132.34;;;17.72;100.00
10946;BME280;5525;42.648;23.368;2022-08-21T04:25:33;94122.53;;;17.64;100.00
10946;BME280;5525;42.648;23.368;2022-08-21T04:28:00;94171.50;;;17.93;100.00
10946;BME280;5525;42.648;23.368;2022-08-21T04:30:29;94126.41;;;17.56;100.00
10946;BME280;5525;42.648;23.368;2022-08-21T04:32:57;94173.41;;;17.86;100.00
10946;BME280;5525;42.648;23.368;2022-08-21T04:35:26;94121.72;;;17.56;100.00
10946;BME280;5525;42.648;23.368;2022-08-21T04:37:54;94111.19;;;17.55;100.00
10946;BME280;5525;42.648;23.368;2022-08-21T04:40:23;94153.91;;;17.91;100.00
10946;BME280;5525;42.648;23.368;2022-08-21T04:42:53;94140.56;;;17.75;100.00
10946;BME280;5525;42.648;23.368;2022-08-21T04:45:22;94163.69;;;17.92;100.00
10946;BME280;5525;42.648;23.368;2022-08-21T04:47:54;94125.34;;;17.74;100.00
10946;BME280;5525;42.648;23.368;2022-08-21T04:50:26;94161.38;;;18.01;100.00
10946;BME280;5525;42.648;23.368;2022-08-21T04:52:55;94159.19;;;18.31;100.00
10946;BME280;5525;42.648;23.368;2022-08-21T04:55:24;94091.00;;;18.77;100.00
10946;BME280;5525;42.648;23.368;2022-08-21T04:57:54;94135.97;;;19.18;100.00
10946;BME280;5525;42.648;23.368;2022-08-21T05:00:25;94110.94;;;18.98;100.00
10946;BME280;5525;42.648;23.368;2022-08-21T05:02:58;94100.41;;;19.21;100.00
10946;BME280;5525;42.648;23.368;2022-08-21T05:05:27;94143.41;;;20.88;100.00
10946;BME280;5525;42.648;23.368;2022-08-21T05:07:55;94117.22;;;21.82;100.00
10946;BME280;5525;42.648;23.368;2022-08-21T05:10:23;94080.31;;;22.47;100.00
10946;BME280;5525;42.648;23.368;2022-08-21T05:12:51;94109.13;;;23.75;100.00
10946;BME280;5525;42.648;23.368;2022-08-21T05:15:18;94090.16;;;24.00;100.00
10946;BME280;5525;42.648;23.368;2022-08-21T05:17:45;94135.50;;;25.68;92.27
10946;BME280;5525;42.648;23.368;2022-08-21T05:20:14;94109.88;;;27.11;76.41
10946;BME280;5525;42.648;23.368;2022-08-21T05:22:41;94138.03;;;28.44;67.00
10946;BME280;5525;42.648;23.368;2022-08-21T05:25:09;94141.25;;;28.55;61.53
10946;BME280;5525;42.648;23.368;2022-08-21T05:27:37;94144.34;;;26.40;71.51
10946;BME280;5525;42.648;23.368;2022-08-21T05:30:08;94116.91;;;25.01;83.16
10946;BME280;5525;42.648;23.368;2022-08-21T05:32:36;94144.59;;;24.19;90.91
10946;BME280;5525;42.648;23.368;2022-08-21T05:35:04;94100.56;;;23.20;99.44
10946;BME280;5525;42.648;23.368;2022-08-21T05:37:34;94124.00;;;23.32;100.00
10946;BME280;5525;42.648;23.368;2022-08-21T05:40:03;94134.41;;;24.36;95.31
10946;BME280;5525;42.648;23.368;2022-08-21T05:42:31;94112.94;;;27.00;81.34
10946;BME280;5525;42.648;23.368;2022-08-21T05:44:58;94085.09;;;29.33;60.29
10946;BME280;5525;42.648;23.368;2022-08-21T05:47:26;94127.03;;;30.81;50.57
10946;BME280;5525;42.648;23.368;2022-08-21T05:50:05;94115.31;;;31.19;50.97
10946;BME280;5525;42.648;23.368;2022-08-21T05:52:34;94124.03;;;31.12;49.27
10946;BME280;5525;42.648;23.368;2022-08-21T05:55:02;94133.94;;;31.73;47.73
10946;BME280;5525;42.648;23.368;2022-08-21T05:57:29;94073.72;;;31.81;46.01
10946;BME280;5525;42.648;23.368;2022-08-21T05:59:57;94063.97;;;29.54;52.42
10946;BME280;5525;42.648;23.368;2022-08-21T06:02:25;94089.91;;;27.66;62.72
10946;BME280;5525;42.648;23.368;2022-08-21T06:04:52;94088.53;;;26.41;69.40
10946;BME280;5525;42.648;23.368;2022-08-21T06:07:22;94102.81;;;25.79;75.21
10946;BME280;5525;42.648;23.368;2022-08-21T06:09:50;94130.28;;;26.63;74.51
10946;BME280;5525;42.648;23.368;2022-08-21T06:12:17;94131.88;;;28.83;60.73
10946;BME280;5525;42.648;23.368;2022-08-21T06:14:45;94131.75;;;31.77;49.02
10946;BME280;5525;42.648;23.368;2022-08-21T06:17:13;94093.19;;;32.22;45.84
10946;BME280;5525;42.648;23.368;2022-08-21T06:19:43;94118.16;;;34.39;42.07
10946;BME280;5525;42.648;23.368;2022-08-21T06:22:11;94123.66;;;35.96;37.69
10946;BME280;5525;42.648;23.368;2022-08-21T06:24:38;94135.09;;;33.80;42.20
10946;BME280;5525;42.648;23.368;2022-08-21T06:27:07;94078.72;;;29.64;51.06
10946;BME280;5525;42.648;23.368;2022-08-21T06:29:37;94093.22;;;27.86;61.17
10946;BME280;5525;42.648;23.368;2022-08-21T06:32:11;94049.81;;;26.25;68.86
10946;BME280;5525;42.648;23.368;2022-08-21T06:34:40;94098.78;;;26.28;74.29
10946;BME280;5525;42.648;23.368;2022-08-21T06:37:08;94108.78;;;25.62;81.49
10946;BME280;5525;42.648;23.368;2022-08-21T06:39:36;94086.63;;;25.14;86.39
10946;BME280;5525;42.648;23.368;2022-08-21T06:42:09;94121.56;;;25.56;86.65
10946;BME280;5525;42.648;23.368;2022-08-21T06:44:39;94091.50;;;26.34;80.15
10946;BME280;5525;42.648;23.368;2022-08-21T06:47:06;94130.75;;;27.53;67.95
10946;BME280;5525;42.648;23.368;2022-08-21T06:49:33;94109.41;;;27.25;67.04
10946;BME280;5525;42.648;23.368;2022-08-21T06:52:01;94078.91;;;26.17;75.75
10946;BME280;5525;42.648;23.368;2022-08-21T06:54:29;94133.34;;;28.96;61.94
10946;BME280;5525;42.648;23.368;2022-08-21T06:56:56;94106.56;;;30.57;49.86
10946;BME280;5525;42.648;23.368;2022-08-21T06:59:25;94153.38;;;28.36;59.87
10946;BME280;5525;42.648;23.368;2022-08-21T07:01:52;94141.75;;;26.90;66.89
10946;BME280;5525;42.648;23.368;2022-08-21T07:04:22;94139.03;;;26.74;66.00
10946;BME280;5525;42.648;23.368;2022-08-21T07:06:52;94142.66;;;25.98;75.13
10946;BME280;5525;42.648;23.368;2022-08-21T07:09:19;94073.28;;;24.76;80.43
10946;BME280;5525;42.648;23.368;2022-08-21T07:11:49;94132.94;;;25.26;79.58
10946;BME280;5525;42.648;23.368;2022-08-21T07:14:17;94134.78;;;25.48;79.97
10946;BME280;5525;42.648;23.368;2022-08-21T07:17:12;94135.78;;;26.06;76.39
10946;BME280;5525;42.648;23.368;2022-08-21T07:19:40;94061.31;;;26.52;73.10
10946;BME280;5525;42.648;23.368;2022-08-21T07:22:08;94090.09;;;27.96;61.45
10946;BME280;5525;42.648;23.368;2022-08-21T07:24:35;94139.31;;;27.46;67.97
10946;BME280;5525;42.648;23.368;2022-08-21T07:27:03;94115.22;;;26.48;73.54
10946;BME280;5525;42.648;23.368;2022-08-21T07:29:30;94088.75;;;26.76;74.19
10946;BME280;5525;42.648;23.368;2022-08-21T07:31:57;94077.53;;;28.60;62.85
10946;BME280;5525;42.648;23.368;2022-08-21T07:34:26;94113.44;;;29.50;55.93
10946;BME280;5525;42.648;23.368;2022-08-21T07:36:53;94118.41;;;27.79;62.30
10946;BME280;5525;42.648;23.368;2022-08-21T07:39:20;94094.91;;;26.26;70.11
10946;BME280;5525;42.648;23.368;2022-08-21T07:41:47;94125.09;;;26.20;72.09
10946;BME280;5525;42.648;23.368;2022-08-21T07:44:14;94068.69;;;26.72;66.74
10946;BME280;5525;42.648;23.368;2022-08-21T07:46:42;94088.50;;;27.36;64.90
10946;BME280;5525;42.648;23.368;2022-08-21T07:49:09;94063.84;;;28.10;58.68
10946;BME280;5525;42.648;23.368;2022-08-21T07:51:38;94075.94;;;29.64;54.09
10946;BME280;5525;42.648;23.368;2022-08-21T07:54:05;94098.34;;;30.90;47.10
10946;BME280;5525;42.648;23.368;2022-08-21T07:56:34;94078.59;;;29.76;51.20
10946;BME280;5525;42.648;23.368;2022-08-21T07:59:01;94115.94;;;28.06;55.79
10946;BME280;5525;42.648;23.368;2022-08-21T08:01:28;94118.94;;;30.83;49.44
10946;BME280;5525;42.648;23.368;2022-08-21T08:03:56;94069.19;;;33.07;40.47
10946;BME280;5525;42.648;23.368;2022-08-21T08:06:24;94097.09;;;31.51;44.35
10946;BME280;5525;42.648;23.368;2022-08-21T08:08:53;94118.09;;;32.35;42.95
10946;BME280;5525;42.648;23.368;2022-08-21T08:11:20;94100.69;;;31.51;44.17
10946;BME280;5525;42.648;23.368;2022-08-21T08:13:51;94104.66;;;29.60;49.36
10946;BME280;5525;42.648;23.368;2022-08-21T08:16:18;94114.41;;;27.92;56.25
10946;BME280;5525;42.648;23.368;2022-08-21T08:18:46;94080.59;;;27.10;60.53
10946;BME280;5525;42.648;23.368;2022-08-21T08:21:14;94106.84;;;28.40;56.07
10946;BME280;5525;42.648;23.368;2022-08-21T08:23:41;94123.09;;;28.29;55.33
10946;BME280;5525;42.648;23.368;2022-08-21T08:26:11;94120.19;;;27.98;57.87
10946;BME280;5525;42.648;23.368;2022-08-21T08:28:38;94085.59;;;28.46;57.97
10946;BME280;5525;42.648;23.368;2022-08-21T08:31:05;94078.47;;;29.80;51.09
10946;BME280;5525;42.648;23.368;2022-08-21T08:33:31;94105.91;;;29.29;52.58
10946;BME280;5525;42.648;23.368;2022-08-21T08:35:59;94117.97;;;27.80;59.47
10946;BME280;5525;42.648;23.368;2022-08-21T08:38:26;94130.59;;;27.94;60.06
10946;BME280;5525;42.648;23.368;2022-08-21T08:41:10;94106.63;;;28.00;59.53
10946;BME280;5525;42.648;23.368;2022-08-21T08:43:41;94123.72;;;27.23;62.66
10946;BME280;5525;42.648;23.368;2022-08-21T08:46:14;94116.47;;;26.18;69.88
10946;BME280;5525;42.648;23.368;2022-08-21T08:48:47;94123.59;;;25.20;76.97
10946;BME280;5525;42.648;23.368;2022-08-21T08:51:22;94116.91;;;25.85;71.87
10946;BME280;5525;42.648;23.368;2022-08-21T08:53:55;94096.06;;;26.82;66.69
10946;BME280;5525;42.648;23.368;2022-08-21T08:56:28;94077.59;;;26.92;66.65
10946;BME280;5525;42.648;23.368;2022-08-21T08:59:07;94061.59;;;26.83;65.78
10946;BME280;5525;42.648;23.368;2022-08-21T09:01:36;94102.44;;;26.95;66.87
10946;BME280;5525;42.648;23.368;2022-08-21T09:04:03;94098.22;;;26.91;65.03
10946;BME280;5525;42.648;23.368;2022-08-21T09:06:49;94069.38;;;27.01;65.01
10946;BME280;5525;42.648;23.368;2022-08-21T09:09:28;94040.22;;;26.71;63.14
10946;BME280;5525;42.648;23.368;2022-08-21T09:12:02;94092.94;;;27.34;63.02
10946;BME280;5525;42.648;23.368;2022-08-21T09:14:47;94093.19;;;26.73;65.63
10946;BME280;5525;42.648;23.368;2022-08-21T09:17:26;94084.66;;;26.80;64.40
10946;BME280;5525;42.648;23.368;2022-08-21T09:20:11;94086.63;;;26.67;69.61
10946;BME280;5525;42.648;23.368;2022-08-21T09:22:50;94087.75;;;26.82;65.31
10946;BME280;5525;42.648;23.368;2022-08-21T09:25:21;94030.50;;;26.38;65.28
10946;BME280;5525;42.648;23.368;2022-08-21T09:27:49;94036.25;;;28.50;56.03
10946;BME280;5525;42.648;23.368;2022-08-21T09:30:24;94058.06;;;31.74;45.54
10946;BME280;5525;42.648;23.368;2022-08-21T09:32:53;94038.53;;;34.10;38.96
10946;BME280;5525;42.648;23.368;2022-08-21T09:35:21;94088.78;;;33.50;38.83
10946;BME280;5525;42.648;23.368;2022-08-21T09:37:52;94096.59;;;32.03;42.19
10946;BME280;5525;42.648;23.368;2022-08-21T09:40:27;94089.06;;;30.21;48.01
10946;BME280;5525;42.648;23.368;2022-08-21T09:42:58;94086.53;;;29.16;52.14
10946;BME280;5525;42.648;23.368;2022-08-21T09:45:28;94080.00;;;28.80;53.65
10946;BME280;5525;42.648;23.368;2022-08-21T09:47:55;94086.53;;;28.64;54.54
10946;BME280;5525;42.648;23.368;2022-08-21T09:50:25;94074.25;;;28.40;54.60
10946;BME280;5525;42.648;23.368;2022-08-21T09:52:55;94077.28;;;28.12;55.93
10946;BME280;5525;42.648;23.368;2022-08-21T09:55:51;94079.38;;;27.48;58.99
10946;BME280;5525;42.648;23.368;2022-08-21T09:58:38;94071.47;;;26.14;66.14
10946;BME280;5525;42.648;23.368;2022-08-21T10:01:20;94060.22;;;25.77;67.92
10946;BME280;5525;42.648;23.368;2022-08-21T10:03:48;94020.22;;;25.65;65.66
10946;BME280;5525;42.648;23.368;2022-08-21T10:06:27;94057.91;;;25.59;67.65
10946;BME280;5525;42.648;23.368;2022-08-21T10:09:04;94060.94;;;25.33;70.23
10946;BME280;5525;42.648;23.368;2022-08-21T10:11:32;94003.72;;;24.81;71.85
10946;BME280;5525;42.648;23.368;2022-08-21T10:14:06;94005.88;;;24.90;72.46
10946;BME280;5525;42.648;23.368;2022-08-21T10:16:44;94035.00;;;25.27;72.47
10946;BME280;5525;42.648;23.368;2022-08-21T10:19:20;94056.44;;;25.55;71.31
10946;BME280;5525;42.648;23.368;2022-08-21T10:21:59;94054.16;;;25.82;70.17
10946;BME280;5525;42.648;23.368;2022-08-21T10:24:33;94029.97;;;26.56;66.06
10946;BME280;5525;42.648;23.368;2022-08-21T10:27:12;94038.00;;;27.54;59.18
10946;BME280;5525;42.648;23.368;2022-08-21T10:29:50;94042.28;;;28.14;56.95
10946;BME280;5525;42.648;23.368;2022-08-21T10:33:00;94014.00;;;28.07;55.39
10946;BME280;5525;42.648;23.368;2022-08-21T10:35:31;93979.22;;;27.80;55.37
10946;BME280;5525;42.648;23.368;2022-08-21T10:38:22;94031.94;;;27.80;56.48
10946;BME280;5525;42.648;23.368;2022-08-21T10:41:02;94046.72;;;27.90;56.06
10946;BME280;5525;42.648;23.368;2022-08-21T10:43:38;94042.44;;;28.32;55.35
10946;BME280;5525;42.648;23.368;2022-08-21T10:46:14;94039.72;;;29.54;51.13
10946;BME280;5525;42.648;23.368;2022-08-21T10:48:47;94013.06;;;30.47;47.16
10946;BME280;5525;42.648;23.368;2022-08-21T10:51:23;94043.03;;;32.04;43.82
10946;BME280;5525;42.648;23.368;2022-08-21T10:53:59;94002.44;;;33.00;39.92
10946;BME280;5525;42.648;23.368;2022-08-21T10:56:36;94039.03;;;35.57;35.35
10946;BME280;5525;42.648;23.368;2022-08-21T10:59:22;94033.13;;;35.49;34.03
10946;BME280;5525;42.648;23.368;2022-08-21T11:01:54;94022.88;;;35.46;34.83
10946;BME280;5525;42.648;23.368;2022-08-21T11:04:32;93980.19;;;35.73;33.83
10946;BME280;5525;42.648;23.368;2022-08-21T11:07:05;94034.19;;;37.56;30.67
10946;BME280;5525;42.648;23.368;2022-08-21T11:09:33;94028.50;;;38.22;29.48
10946;BME280;5525;42.648;23.368;2022-08-21T11:12:05;94021.44;;;39.08;27.99
10946;BME280;5525;42.648;23.368;2022-08-21T11:14:41;94018.06;;;39.50;27.05
10946;BME280;5525;42.648;23.368;2022-08-21T11:17:16;94019.50;;;40.15;26.56
10946;BME280;5525;42.648;23.368;2022-08-21T11:19:53;94006.84;;;39.68;26.86
10946;BME280;5525;42.648;23.368;2022-08-21T11:22:26;94009.09;;;39.11;27.04
10946;BME280;5525;42.648;23.368;2022-08-21T11:25:00;93994.44;;;38.66;27.59
10946;BME280;5525;42.648;23.368;2022-08-21T11:27:39;93955.50;;;36.58;29.69
10946;BME280;5525;42.648;23.368;2022-08-21T11:30:15;93953.94;;;34.32;33.11
10946;BME280;5525;42.648;23.368;2022-08-21T11:32:59;93995.13;;;34.46;33.89
10946;BME280;5525;42.648;23.368;2022-08-21T11:35:38;93970.22;;;33.53;35.58
10946;BME280;5525;42.648;23.368;2022-08-21T11:38:20;93992.81;;;33.35;36.52
10946;BME280;5525;42.648;23.368;2022-08-21T11:41:00;93992.41;;;32.93;37.27
10946;BME280;5525;42.648;23.368;2022-08-21T11:43:37;93970.97;;;33.19;36.71
10946;BME280;5525;42.648;23.368;2022-08-21T11:46:14;93939.50;;;32.22;38.00
10946;BME280;5525;42.648;23.368;2022-08-21T11:48:51;93971.47;;;31.36;40.10
10946;BME280;5525;42.648;23.368;2022-08-21T11:51:26;93971.56;;;30.58;42.25
10946;BME280;5525;42.648;23.368;2022-08-21T11:54:01;93968.50;;;29.84;43.76
10946;BME280;5525;42.648;23.368;2022-08-21T11:56:36;93944.94;;;28.91;44.56
10946;BME280;5525;42.648;23.368;2022-08-21T11:59:07;93960.72;;;29.03;45.70
10946;BME280;5525;42.648;23.368;2022-08-21T12:01:39;93944.78;;;28.34;47.35
10946;BME280;5525;42.648;23.368;2022-08-21T12:04:17;93968.22;;;28.33;49.06
10946;BME280;5525;42.648;23.368;2022-08-21T12:06:48;93961.88;;;27.67;49.98
10946;BME280;5525;42.648;23.368;2022-08-21T12:09:32;93937.72;;;27.55;50.56
10946;BME280;5525;42.648;23.368;2022-08-21T12:12:04;93954.00;;;27.66;50.24
10946;BME280;5525;42.648;23.368;2022-08-21T12:14:40;93941.19;;;27.22;50.41
10946;BME280;5525;42.648;23.368;2022-08-21T12:17:16;93919.78;;;26.76;51.83
10946;BME280;5525;42.648;23.368;2022-08-21T12:19:44;93933.28;;;26.48;53.31
10946;BME280;5525;42.648;23.368;2022-08-21T12:22:14;93936.03;;;26.36;53.43
10946;BME280;5525;42.648;23.368;2022-08-21T12:24:43;93951.59;;;26.17;55.02
10946;BME280;5525;42.648;23.368;2022-08-21T12:27:23;93950.84;;;26.29;55.85
10946;BME280;5525;42.648;23.368;2022-08-21T12:29:56;93948.19;;;26.13;56.18
10946;BME280;5525;42.648;23.368;2022-08-21T12:32:28;93947.97;;;25.92;57.50
10946;BME280;5525;42.648;23.368;2022-08-21T12:35:02;93932.69;;;25.59;58.52
10946;BME280;5525;42.648;23.368;2022-08-21T12:37:39;93922.50;;;25.56;59.53
10946;BME280;5525;42.648;23.368;2022-08-21T12:40:14;93921.38;;;25.69;60.05
10946;BME280;5525;42.648;23.368;2022-08-21T12:42:47;93948.28;;;25.81;59.69
10946;BME280;5525;42.648;23.368;2022-08-21T12:45:20;93913.06;;;25.41;60.29
10946;BME280;5525;42.648;23.368;2022-08-21T12:47:55;93951.72;;;25.57;60.79
10946;BME280;5525;42.648;23.368;2022-08-21T12:50:31;93962.66;;;25.60;61.44
10946;BME280;5525;42.648;23.368;2022-08-21T12:53:07;93924.31;;;25.34;63.22
10946;BME280;5525;42.648;23.368;2022-08-21T12:55:40;93960.56;;;25.36;67.31
10946;BME280;5525;42.648;23.368;2022-08-21T12:58:17;93947.88;;;25.38;69.57
10946;BME280;5525;42.648;23.368;2022-08-21T13:00:49;93949.94;;;25.34;71.79
10946;BME280;5525;42.648;23.368;2022-08-21T13:03:17;93937.94;;;25.25;73.46
10946;BME280;5525;42.648;23.368;2022-08-21T13:05:44;93927.94;;;25.15;72.60
10946;BME280;5525;42.648;23.368;2022-08-21T13:08:13;93942.94;;;25.30;72.88
10946;BME280;5525;42.648;23.368;2022-08-21T13:10:41;93938.81;;;25.06;76.17
10946;BME280;5525;42.648;23.368;2022-08-21T13:13:14;93942.19;;;25.13;75.64